Airfield :
LOGIN :

Register | Disclaimer

   EN    FR    IT 

 










Legend :    VFR   Marginal VFR   IFR   Intensive IFR   Very Intensive IFR
Visi :
Ceiling :
>= 8 km
>= 3000ft
5 to 8 km
1000 to 3000 ft
1500m to 5 km
500 to 1000 ft
800 to 1500m
200 to 500 ft
< 800m
< 200 ft
Symbols :   Thunderstorms  Fog  Heavy snow  Heavy precipitations  Wind > 20 kt
SIGMETs :     Misc.  Thunderstorms  Icing  Turbulence  Mountain Waves  Volcanic Ashes







- Airport Elevation : 359 ft
- IATA code : BVA
- Download approach charts


LFOB - Beauvais

CURRENT METAR :
  • 171400Z AUTO 01008KT 320V050 9999 FEW045 22/10 Q1022 NOSIG

EXPIRED METARs :
  • 171330Z AUTO 01010KT 340V050 9999 SCT044 21/10 Q1022 NOSIG
  • 171300Z AUTO 02009KT 340V050 9999 SCT043 21/10 Q1022 NOSIG
  • 171230Z AUTO 01008KT 330V040 9999 BKN043 21/11 Q1022 NOSIG
  • 171200Z AUTO 35007KT 320V080 9999 SCT039 BKN045 20/11 Q1023 NOSIG
  • 171130Z AUTO 01009KT 310V040 9999 BKN040 20/10 Q1023 NOSIG

TAF TAF LFOB
Valid from the 17 at 12:00 until the 18 at 12:00 UTC


171100Z 1712/1812 03007KT 9999 BKN040
ATIS : +33 3 44 11 49 28
No reported NOTAMs for that airfield.



MET'MAP, your aeronautical weather chart ! - Copyright ORBIFLY December 2007 - Disclaimer

ORBIFLY MET'MAP TEAM :

Programming & Development : Alexandra Zaïnal
Concept & Development : Baudouin d'Aumeries
Co-Development & Prog : Marc-Olivier Méhu
Technical & hardware support : Manuel Goepfert

Contact : metmap@orbifly.com




SOURCES & CREDITS :

   NOAA